Terminal Aerodrome Forecast
Issued by NWS Wilmington, NC

Home | Current Version | Previous Version | Text Only | Print | Product List | Glossary On
Versions: 1 2 3 4 5 6 7 8 9 10 11 12 13 14
558
FTUS42 KILM 090520
TAFMYR
TAF
KMYR 090520Z 0906/1006 35008KT P6SM SCT200
     FM091300 35011G17KT P6SM FEW250
     FM092300 36006KT P6SM SKC
      AMD LTD TO CLD VIS AND WIND TIL 091000=

USA.gov is the U.S. government's official web portal to all federal, state and local government web resources and services.